Time;durP1;ratioP1;P1;durP2;ratioP2;P2;SDS_P1;SDS_P2;PMS_P1;PMS_P2;Temp;Humidity;BMP_temperature;BMP_pressure;BME280_temperature;BME280_humidity;BME280_pressure;Samples;Min_cycle;Max_cycle;Signal;HPM_P1;HPM_P2
2021/08/24 00:00:57;;;;;;;7.95;4.60;;;12.10;93.80;;;;;;5034795;28;20025;-68
2021/08/24 00:03:22;;;;;;;11.32;5.28;;;12.10;94.10;;;;;;5038305;28;20029;-69
2021/08/24 00:05:48;;;;;;;11.93;5.63;;;12.10;93.70;;;;;;5044798;28;20503;-70
2021/08/24 00:08:15;;;;;;;9.18;5.10;;;12.10;94.20;;;;;;5018270;28;20396;-69
2021/08/24 00:10:50;;;;;;;13.23;5.60;;;12.10;94.10;;;;;;5035581;28;20113;-68
2021/08/24 00:13:17;;;;;;;10.32;5.45;;;12.00;94.40;;;;;;5031623;28;20025;-69
2021/08/24 00:15:44;;;;;;;10.00;5.10;;;12.00;94.30;;;;;;5037456;28;20071;-69
2021/08/24 00:18:11;;;;;;;11.02;5.60;;;12.00;94.20;;;;;;5036545;28;20029;-69
2021/08/24 00:20:39;;;;;;;9.18;5.95;;;11.90;94.10;;;;;;5038565;28;20210;-69
2021/08/24 00:23:08;;;;;;;8.95;5.70;;;11.90;94.50;;;;;;5035884;28;20480;-69
2021/08/24 00:25:35;;;;;;;8.77;5.65;;;11.90;94.70;;;;;;5031924;28;20516;-70
2021/08/24 00:28:00;;;;;;;8.77;5.72;;;11.90;94.90;;;;;;5032466;28;20029;-69
2021/08/24 00:30:26;;;;;;;11.88;5.80;;;11.90;94.90;;;;;;5033280;28;20041;-69
2021/08/24 00:32:52;;;;;;;10.90;6.15;;;11.80;94.80;;;;;;5037261;28;20051;-69
2021/08/24 00:35:17;;;;;;;10.40;6.50;;;11.90;94.80;;;;;;5043577;28;20025;-69
2021/08/24 00:37:43;;;;;;;8.50;5.10;;;11.90;94.80;;;;;;5030819;28;20414;-68
2021/08/24 00:40:10;;;;;;;10.45;5.40;;;11.90;94.80;;;;;;5035107;28;20132;-69
2021/08/24 00:42:37;;;;;;;13.05;6.25;;;11.90;94.80;;;;;;5028585;28;20204;-68
2021/08/24 00:45:05;;;;;;;10.10;5.50;;;11.90;94.90;;;;;;5035731;28;20181;-68
2021/08/24 00:47:33;;;;;;;7.97;5.45;;;11.90;95.00;;;;;;5030742;28;20029;-68
2021/08/24 00:50:07;;;;;;;8.10;5.25;;;11.90;95.00;;;;;;5034467;28;20511;-70
2021/08/24 00:52:33;;;;;;;13.10;5.97;;;11.90;95.10;;;;;;5029008;28;20037;-69
2021/08/24 00:55:00;;;;;;;13.23;5.38;;;11.90;95.40;;;;;;5037261;28;20497;-70
2021/08/24 00:57:26;;;;;;;10.02;5.97;;;11.80;95.20;;;;;;5032995;28;20639;-68
2021/08/24 00:59:52;;;;;;;9.13;5.38;;;11.80;95.10;;;;;;5040164;28;20127;-69
2021/08/24 01:02:20;;;;;;;12.38;5.65;;;11.70;94.90;;;;;;5034545;28;20037;-69
2021/08/24 01:04:50;;;;;;;9.38;4.88;;;11.70;94.60;;;;;;5038565;28;20451;-68
2021/08/24 01:07:22;;;;;;;8.97;5.03;;;11.60;94.20;;;;;;5027110;28;20028;-69
2021/08/24 01:09:48;;;;;;;12.70;5.25;;;11.50;94.10;;;;;;5034917;28;20171;-68
2021/08/24 01:12:23;;;;;;;11.15;5.50;;;11.50;94.00;;;;;;5028888;28;20112;-69
2021/08/24 01:14:55;;;;;;;9.38;5.57;;;11.40;94.20;;;;;;5031848;28;20044;-68
2021/08/24 01:17:28;;;;;;;12.88;5.45;;;11.30;94.00;;;;;;5031514;28;20088;-69
2021/08/24 01:20:00;;;;;;;11.63;5.57;;;11.30;94.00;;;;;;5028189;28;20033;-69
2021/08/24 01:22:34;;;;;;;9.00;5.32;;;11.20;94.10;;;;;;5020066;28;20021;-68
2021/08/24 01:25:13;;;;;;;9.80;5.13;;;11.20;94.20;;;;;;5033393;28;20025;-69
2021/08/24 01:27:49;;;;;;;11.05;5.20;;;11.10;94.20;;;;;;5029422;28;20373;-69
2021/08/24 01:30:38;;;;;;;12.00;5.43;;;11.10;94.40;;;;;;5030018;28;20100;-69
2021/08/24 01:33:31;;;;;;;10.45;5.45;;;11.10;94.60;;;;;;5026064;28;20049;-67
2021/08/24 01:36:05;;;;;;;8.02;5.18;;;11.00;94.90;;;;;;5038109;28;20055;-68
2021/08/24 01:38:36;;;;;;;10.00;5.25;;;11.00;95.10;;;;;;5035870;28;20461;-69
2021/08/24 01:41:07;;;;;;;8.40;5.20;;;11.00;95.20;;;;;;5033503;28;20029;-68
2021/08/24 01:43:56;;;;;;;9.82;4.68;;;10.90;94.60;;;;;;5025522;28;20083;-68
2021/08/24 01:47:02;;;;;;;6.63;4.30;;;10.80;94.40;;;;;;5027219;28;20124;-69
2021/08/24 01:49:35;;;;;;;11.05;5.18;;;10.80;94.50;;;;;;5033680;28;20044;-67
2021/08/24 01:52:07;;;;;;;11.70;5.63;;;10.70;94.50;;;;;;5036618;28;20025;-68
2021/08/24 01:54:39;;;;;;;11.00;5.15;;;10.70;94.70;;;;;;5025934;28;20021;-67
2021/08/24 01:57:10;;;;;;;9.77;5.53;;;10.70;94.80;;;;;;5031217;28;20040;-68
2021/08/24 01:59:41;;;;;;;;;;;10.70;94.90;;;;;;5032769;28;20132;-68
2021/08/24 02:02:12;;;;;;;9.90;5.97;;;10.70;95.00;;;;;;5018998;28;20073;-67
2021/08/24 02:04:48;;;;;;;9.48;5.50;;;10.70;95.30;;;;;;5025924;28;20055;-68
2021/08/24 02:07:16;;;;;;;11.30;5.97;;;10.60;95.20;;;;;;5032671;28;20048;-68
2021/08/24 02:09:46;;;;;;;11.27;6.35;;;10.60;95.40;;;;;;5032538;28;20044;-68
2021/08/24 02:12:13;;;;;;;10.90;6.63;;;10.60;95.50;;;;;;5030607;28;20029;-67
2021/08/24 02:14:41;;;;;;;12.70;6.60;;;10.50;95.40;;;;;;5030121;28;20041;-67
2021/08/24 02:17:10;;;;;;;10.07;6.80;;;10.50;95.50;;;;;;5035273;28;20029;-67
2021/08/24 02:19:44;;;;;;;12.60;6.95;;;10.50;95.60;;;;;;5039265;28;20476;-68
2021/08/24 02:22:32;;;;;;;11.38;7.00;;;10.50;95.70;;;;;;5035930;28;20279;-68
2021/08/24 02:25:12;;;;;;;10.45;5.82;;;10.50;95.90;;;;;;5042921;28;20100;-69
2021/08/24 02:27:43;;;;;;;13.23;6.55;;;10.50;96.00;;;;;;5035701;28;20061;-69
2021/08/24 02:30:10;;;;;;;15.38;7.32;;;10.40;95.80;;;;;;5033965;28;20035;-67
2021/08/24 02:32:41;;;;;;;11.48;7.45;;;10.50;96.00;;;;;;5039485;28;20037;-69
2021/08/24 02:35:26;;;;;;;16.08;7.50;;;10.40;96.00;;;;;;5043811;28;20087;-69
2021/08/24 02:38:13;;;;;;;12.73;6.75;;;10.40;96.20;;;;;;5037790;28;20018;-68
2021/08/24 02:41:00;;;;;;;15.80;8.60;;;10.40;96.20;;;;;;5032674;28;20127;-69
2021/08/24 02:43:42;;;;;;;11.70;7.97;;;10.40;96.30;;;;;;5028732;28;20040;-68
2021/08/24 02:46:29;;;;;;;15.23;8.23;;;10.40;96.40;;;;;;5034482;28;20565;-69
2021/08/24 02:48:59;;;;;;;13.75;8.80;;;10.40;96.50;;;;;;5035070;28;20033;-69
2021/08/24 02:51:27;;;;;;;14.88;8.68;;;10.40;96.60;;;;;;5035192;28;20168;-67
2021/08/24 02:54:12;;;;;;;13.52;7.65;;;10.30;96.50;;;;;;5031263;28;20353;-68
2021/08/24 02:56:38;;;;;;;11.30;7.57;;;10.30;96.60;;;;;;5027473;28;20736;-69
2021/08/24 02:59:04;;;;;;;10.98;7.32;;;10.30;96.50;;;;;;5033042;28;20027;-69
2021/08/24 03:01:29;;;;;;;9.52;6.25;;;10.30;96.50;;;;;;5038243;28;20058;-67
2021/08/24 03:03:55;;;;;;;13.98;7.97;;;10.30;96.50;;;;;;5035188;28;20021;-69
2021/08/24 03:06:21;;;;;;;10.70;7.05;;;10.20;96.50;;;;;;5035303;28;20025;-68
2021/08/24 03:08:48;;;;;;;13.88;7.60;;;10.20;96.60;;;;;;5040382;28;20075;-68
2021/08/24 03:11:19;;;;;;;13.73;7.57;;;10.20;96.70;;;;;;5034607;28;20052;-68
2021/08/24 03:13:56;;;;;;;13.13;7.80;;;10.20;96.60;;;;;;5035672;28;20048;-69
2021/08/24 03:16:29;;;;;;;12.63;7.22;;;10.20;96.70;;;;;;5032765;28;20033;-69
2021/08/24 03:19:03;;;;;;;16.13;8.20;;;10.10;96.70;;;;;;5033448;28;20056;-69
2021/08/24 03:21:34;;;;;;;10.95;7.00;;;10.20;96.90;;;;;;5033660;28;20455;-69
2021/08/24 03:24:01;;;;;;;10.82;5.88;;;10.10;96.70;;;;;;5043118;28;20182;-69
2021/08/24 03:26:34;;;;;;;9.10;5.55;;;10.10;96.50;;;;;;5037153;28;20025;-66
2021/08/24 03:29:10;;;;;;;9.63;5.95;;;10.10;96.50;;;;;;5042553;28;20067;-68
2021/08/24 03:31:38;;;;;;;9.15;5.40;;;10.00;96.50;;;;;;5036160;28;20088;-69
2021/08/24 03:34:04;;;;;;;12.20;6.47;;;10.10;96.60;;;;;;5038493;28;20029;-69
2021/08/24 03:36:30;;;;;;;9.68;6.75;;;10.00;96.60;;;;;;5034170;28;20033;-68
2021/08/24 03:38:56;;;;;;;13.15;6.82;;;10.00;96.70;;;;;;5033974;28;20527;-68
2021/08/24 03:41:22;;;;;;;9.15;6.80;;;10.00;96.60;;;;;;5034139;28;20092;-68
2021/08/24 03:43:47;;;;;;;8.43;5.32;;;10.00;96.80;;;;;;5032173;28;20083;-67
2021/08/24 03:46:13;;;;;;;11.68;6.82;;;9.90;96.60;;;;;;5038077;28;20174;-68
2021/08/24 03:48:38;;;;;;;13.93;6.50;;;9.90;96.70;;;;;;5038811;28;20057;-69
2021/08/24 03:51:04;;;;;;;12.57;7.13;;;9.90;96.70;;;;;;5035684;28;20068;-68
2021/08/24 03:53:32;;;;;;;11.40;6.40;;;9.90;96.70;;;;;;5042505;28;20029;-67
2021/08/24 03:55:57;;;;;;;11.45;6.97;;;9.80;96.70;;;;;;5027080;28;20021;-69
2021/08/24 03:58:23;;;;;;;17.75;8.10;;;9.80;96.70;;;;;;5037584;28;20036;-68
2021/08/24 04:00:49;;;;;;;14.45;7.57;;;9.80;96.80;;;;;;5035094;28;20464;-69
2021/08/24 04:03:15;;;;;;;18.75;8.52;;;9.80;97.00;;;;;;5029372;28;20079;-69
2021/08/24 04:05:40;;;;;;;15.88;9.07;;;9.80;97.00;;;;;;5034947;28;20124;-69
2021/08/24 04:08:07;;;;;;;12.15;7.80;;;9.80;97.00;;;;;;5032760;28;20318;-68
2021/08/24 04:10:32;;;;;;;13.70;7.47;;;9.70;97.10;;;;;;5035939;28;20029;-67
2021/08/24 04:12:58;;;;;;;13.90;8.52;;;9.70;97.00;;;;;;5035003;28;20116;-66
2021/08/24 04:15:24;;;;;;;14.23;7.97;;;9.70;97.00;;;;;;5034834;28;20041;-69
2021/08/24 04:17:50;;;;;;;15.75;9.32;;;9.70;96.90;;;;;;5026652;28;20097;-68
2021/08/24 04:20:16;;;;;;;17.33;8.88;;;9.60;97.00;;;;;;5042420;28;20029;-64
2021/08/24 04:22:45;;;;;;;13.55;9.18;;;9.60;96.80;;;;;;5029380;28;20025;-64
2021/08/24 04:25:13;;;;;;;18.58;10.25;;;9.60;96.90;;;;;;5036165;28;20041;-64
2021/08/24 04:27:39;;;;;;;13.65;9.13;;;9.60;97.00;;;;;;5033518;28;20067;-64
2021/08/24 04:30:05;;;;;;;21.77;9.73;;;9.60;97.00;;;;;;5035387;28;20119;-64
2021/08/24 04:32:34;;;;;;;18.10;10.10;;;9.60;97.10;;;;;;5035215;28;20044;-64
2021/08/24 04:34:59;;;;;;;16.27;10.48;;;9.60;97.10;;;;;;5039330;28;20139;-63
2021/08/24 04:37:25;;;;;;;16.88;10.57;;;9.70;97.30;;;;;;5036201;28;20488;-64
2021/08/24 04:39:51;;;;;;;19.55;10.63;;;9.70;97.30;;;;;;5038629;28;20136;-64
2021/08/24 04:42:17;;;;;;;21.40;10.35;;;9.70;97.30;;;;;;5036288;28;20025;-63
2021/08/24 04:44:43;;;;;;;16.52;10.23;;;9.80;97.40;;;;;;5028024;28;20144;-63
2021/08/24 04:47:09;;;;;;;11.57;8.05;;;9.70;97.20;;;;;;5031582;28;20029;-64
2021/08/24 04:49:35;;;;;;;13.93;8.27;;;9.70;97.10;;;;;;5036154;28;20406;-64
2021/08/24 04:52:00;;;;;;;15.65;7.68;;;9.70;96.90;;;;;;5034643;28;20029;-63
2021/08/24 04:54:33;;;;;;;14.80;7.63;;;9.70;96.80;;;;;;5036081;28;20067;-64
2021/08/24 04:56:59;;;;;;;10.27;7.28;;;9.60;96.60;;;;;;5034956;28;20041;-63
2021/08/24 04:59:25;;;;;;;11.27;7.20;;;9.70;96.50;;;;;;5029772;28;20025;-63
2021/08/24 05:01:50;;;;;;;12.90;7.85;;;9.60;96.50;;;;;;5025587;28;20065;-64
2021/08/24 05:04:16;;;;;;;11.45;7.18;;;9.70;96.50;;;;;;5032572;28;20345;-64
2021/08/24 05:06:42;;;;;;;12.07;7.45;;;9.70;96.40;;;;;;5030296;28;20108;-63
2021/08/24 05:09:07;;;;;;;12.43;7.28;;;9.80;96.40;;;;;;5031809;28;20407;-63
2021/08/24 05:11:33;;;;;;;12.45;7.20;;;9.80;96.40;;;;;;5023413;28;20580;-63
2021/08/24 05:13:58;;;;;;;11.13;6.25;;;9.80;96.20;;;;;;5030855;28;20098;-64
2021/08/24 05:16:24;;;;;;;11.73;6.88;;;9.80;96.20;;;;;;5031188;28;20091;-63
2021/08/24 05:18:50;;;;;;;13.23;7.65;;;9.80;96.30;;;;;;5040157;28;20024;-64
2021/08/24 05:21:15;;;;;;;11.25;6.63;;;9.90;96.40;;;;;;5026577;28;20029;-63
2021/08/24 05:23:42;;;;;;;10.32;7.03;;;10.00;96.50;;;;;;5031079;28;20144;-64
2021/08/24 05:26:14;;;;;;;13.82;7.25;;;10.00;96.50;;;;;;5038246;28;20036;-63
2021/08/24 05:28:39;;;;;;;13.13;7.45;;;10.00;96.60;;;;;;5034371;28;20029;-64
2021/08/24 05:31:05;;;;;;;13.52;7.90;;;10.10;96.60;;;;;;5028639;28;20044;-63
2021/08/24 05:33:31;;;;;;;12.50;7.13;;;10.10;96.70;;;;;;5033237;28;20053;-63
2021/08/24 05:36:00;;;;;;;12.13;7.80;;;10.20;96.70;;;;;;5029556;28;20022;-64
2021/08/24 05:38:28;;;;;;;14.27;8.27;;;10.30;96.80;;;;;;5033462;28;20460;-64
2021/08/24 05:40:55;;;;;;;16.45;8.23;;;10.40;96.80;;;;;;5029049;28;20029;-64
2021/08/24 05:43:21;;;;;;;13.50;8.15;;;10.50;97.00;;;;;;5029401;28;20036;-63
2021/08/24 05:45:57;;;;;;;12.98;6.88;;;10.60;97.10;;;;;;5031600;28;20037;-64
2021/08/24 05:48:23;;;;;;;11.88;6.68;;;10.70;97.00;;;;;;5031701;28;20464;-63
2021/08/24 05:50:49;;;;;;;11.20;6.65;;;10.80;97.00;;;;;;5031116;28;20065;-63
2021/08/24 05:53:15;;;;;;;11.52;7.45;;;10.90;96.80;;;;;;5030282;28;20464;-63
2021/08/24 05:55:41;;;;;;;9.65;6.70;;;11.00;96.80;;;;;;5032435;28;20024;-64
2021/08/24 05:58:06;;;;;;;11.43;5.45;;;11.10;96.60;;;;;;5034309;28;20040;-64
2021/08/24 06:00:32;;;;;;;10.55;6.22;;;11.20;96.60;;;;;;5045010;28;20029;-64
2021/08/24 06:02:58;;;;;;;12.82;6.47;;;11.20;96.50;;;;;;5032076;28;20028;-64
2021/08/24 06:05:23;;;;;;;9.88;5.50;;;11.40;96.50;;;;;;5036055;28;20073;-64
2021/08/24 06:07:49;;;;;;;9.88;5.10;;;11.40;96.40;;;;;;5028747;28;20236;-63
2021/08/24 06:10:15;;;;;;;8.75;5.03;;;11.50;96.30;;;;;;5036930;28;20032;-63
2021/08/24 06:12:40;;;;;;;9.68;5.05;;;11.70;96.20;;;;;;5031117;28;20044;-63
2021/08/24 06:15:07;;;;;;;8.35;4.80;;;11.70;96.10;;;;;;5033125;28;20022;-64
2021/08/24 06:17:33;;;;;;;9.68;5.85;;;11.90;96.10;;;;;;5027456;28;20021;-64
2021/08/24 06:19:59;;;;;;;8.88;4.85;;;12.00;96.10;;;;;;5043989;28;20440;-63
2021/08/24 06:22:24;;;;;;;8.68;4.50;;;12.00;95.80;;;;;;5028099;28;20106;-64
2021/08/24 06:24:50;;;;;;;7.72;4.18;;;12.20;95.70;;;;;;5033307;28;20460;-64
2021/08/24 06:27:15;;;;;;;7.70;4.50;;;12.20;95.40;;;;;;5034383;28;20037;-63
2021/08/24 06:29:41;;;;;;;7.05;3.90;;;12.30;95.50;;;;;;5043794;28;20053;-64
2021/08/24 06:32:18;;;;;;;5.95;3.35;;;12.60;95.30;;;;;;5036832;28;20059;-64
2021/08/24 06:34:44;;;;;;;7.30;3.58;;;12.70;94.60;;;;;;5039473;28;20033;-63
2021/08/24 06:37:09;;;;;;;6.93;3.42;;;12.90;93.60;;;;;;5029710;28;20078;-64
2021/08/24 06:39:35;;;;;;;6.30;3.35;;;13.00;93.30;;;;;;5037255;28;20082;-64
2021/08/24 06:42:00;;;;;;;7.15;3.55;;;13.00;93.50;;;;;;5036935;28;20025;-64
2021/08/24 06:44:26;;;;;;;6.25;3.40;;;13.10;92.80;;;;;;5037404;28;20029;-64
2021/08/24 06:46:51;;;;;;;6.72;3.53;;;13.30;93.10;;;;;;5031962;28;20036;-63
2021/08/24 06:49:17;;;;;;;8.45;2.90;;;13.40;93.80;;;;;;5044227;28;20128;-64
2021/08/24 06:51:43;;;;;;;7.53;3.65;;;13.40;93.40;;;;;;5031196;28;20044;-64
2021/08/24 06:54:08;;;;;;;6.40;2.97;;;13.60;91.70;;;;;;5044366;28;20017;-64
2021/08/24 06:56:35;;;;;;;8.13;2.90;;;13.60;92.50;;;;;;5038244;28;20104;-64
2021/08/24 06:59:03;;;;;;;7.43;2.92;;;13.70;92.70;;;;;;5035667;28;20032;-64
2021/08/24 07:01:30;;;;;;;7.78;2.65;;;13.80;91.80;;;;;;5039478;28;20310;-65
2021/08/24 07:03:55;;;;;;;5.40;2.60;;;13.90;90.80;;;;;;5040233;28;20021;-65
2021/08/24 07:06:21;;;;;;;6.35;2.75;;;14.00;91.60;;;;;;5031307;28;20040;-65
2021/08/24 07:08:48;;;;;;;3.58;2.38;;;14.10;91.20;;;;;;5032523;28;20040;-65
2021/08/24 07:11:13;;;;;;;4.63;2.00;;;14.30;90.40;;;;;;5036378;28;20431;-65
2021/08/24 07:13:39;;;;;;;4.65;2.08;;;14.40;90.10;;;;;;5036677;28;20033;-65
2021/08/24 07:16:07;;;;;;;7.93;1.98;;;14.50;89.90;;;;;;5031773;28;20037;-65
2021/08/24 07:18:35;;;;;;;5.65;1.90;;;14.60;89.90;;;;;;5035686;28;20051;-65
2021/08/24 07:21:02;;;;;;;2.38;1.30;;;14.80;86.50;;;;;;5032781;28;20317;-65
2021/08/24 07:23:28;;;;;;;3.20;1.73;;;14.80;86.30;;;;;;5029176;28;20028;-65
2021/08/24 07:25:53;;;;;;;3.25;1.60;;;15.00;85.90;;;;;;5037743;28;20036;-65
2021/08/24 07:28:19;;;;;;;3.08;1.50;;;15.20;86.50;;;;;;5028682;28;20341;-65
2021/08/24 07:30:48;;;;;;;3.38;1.58;;;15.20;84.80;;;;;;5033869;28;20552;-65
2021/08/24 07:33:15;;;;;;;2.47;1.17;;;15.40;85.50;;;;;;5031175;28;20455;-65
2021/08/24 07:35:41;;;;;;;2.88;1.30;;;15.50;82.90;;;;;;5036072;28;20033;-65
2021/08/24 07:38:06;;;;;;;2.60;1.20;;;15.60;83.50;;;;;;5034999;28;20122;-65
2021/08/24 07:40:32;;;;;;;3.30;1.45;;;15.80;82.90;;;;;;5036443;28;20025;-65
2021/08/24 07:42:58;;;;;;;4.07;1.42;;;16.10;82.00;;;;;;5035850;28;20022;-65
2021/08/24 07:45:24;;;;;;;2.85;1.45;;;16.10;80.20;;;;;;5043708;28;20569;-65
2021/08/24 07:47:49;;;;;;;5.07;1.38;;;16.30;80.30;;;;;;5034227;28;20033;-65
2021/08/24 07:50:15;;;;;;;4.22;1.45;;;16.20;78.80;;;;;;5038453;28;20087;-65
2021/08/24 07:52:41;;;;;;;6.13;1.50;;;16.20;79.00;;;;;;5027510;28;20464;-65
2021/08/24 07:55:07;;;;;;;3.28;1.48;;;16.10;76.70;;;;;;5040505;28;20051;-65
2021/08/24 07:57:33;;;;;;;2.85;1.30;;;16.10;78.10;;;;;;5037582;28;20479;-65
2021/08/24 07:59:59;;;;;;;3.70;1.50;;;16.30;79.10;;;;;;5035846;28;20112;-65
2021/08/24 08:02:24;;;;;;;3.65;1.25;;;16.50;76.50;;;;;;5034371;28;20072;-65
2021/08/24 08:04:50;;;;;;;2.83;1.02;;;16.70;75.10;;;;;;5029450;28;20029;-66
2021/08/24 08:07:16;;;;;;;5.57;1.30;;;16.90;69.00;;;;;;5033352;28;20108;-65
2021/08/24 08:09:42;;;;;;;3.53;1.15;;;17.00;68.60;;;;;;5033060;28;20032;-65
2021/08/24 08:12:09;;;;;;;3.17;1.50;;;17.10;67.50;;;;;;5039821;28;20091;-65
2021/08/24 08:14:35;;;;;;;2.33;1.30;;;17.30;71.90;;;;;;5028529;28;20154;-65
2021/08/24 08:17:01;;;;;;;3.15;1.15;;;17.30;71.10;;;;;;5033343;28;20039;-64
2021/08/24 08:19:26;;;;;;;3.03;1.30;;;17.30;68.70;;;;;;5033446;28;20055;-65
2021/08/24 08:21:52;;;;;;;3.03;1.50;;;17.20;67.30;;;;;;5025613;28;20090;-65
2021/08/24 08:24:18;;;;;;;2.28;1.30;;;17.50;68.60;;;;;;5029423;28;20461;-65
2021/08/24 08:26:44;;;;;;;3.03;1.40;;;17.60;69.60;;;;;;5032236;28;20048;-65
2021/08/24 08:29:11;;;;;;;6.00;1.50;;;17.60;67.80;;;;;;5028866;28;20456;-65
2021/08/24 08:31:39;;;;;;;3.60;1.17;;;17.70;64.50;;;;;;5037891;28;20025;-65
2021/08/24 08:34:05;;;;;;;3.05;1.20;;;17.90;62.80;;;;;;5032235;28;20282;-65
2021/08/24 08:36:31;;;;;;;2.55;1.02;;;18.10;65.60;;;;;;5040345;28;20574;-65
2021/08/24 08:38:56;;;;;;;1.95;1.02;;;18.30;63.90;;;;;;5025157;28;20456;-65
2021/08/24 08:41:59;;;;;;;2.70;1.20;;;18.60;65.60;;;;;;5033388;28;20368;-65
2021/08/24 08:44:59;;;;;;;1.83;1.08;;;18.80;63.50;;;;;;5027786;28;20455;-65
2021/08/24 08:47:50;;;;;;;2.58;1.08;;;19.10;63.70;;;;;;5033308;28;20384;-65
2021/08/24 08:50:26;;;;;;;2.42;1.20;;;19.30;62.40;;;;;;5029762;28;20068;-65
2021/08/24 08:53:17;;;;;;;4.43;1.00;;;19.40;58.30;;;;;;5022684;28;20033;-65
2021/08/24 08:55:55;;;;;;;1.58;0.90;;;19.60;61.10;;;;;;5033907;28;20554;-65
2021/08/24 08:58:35;;;;;;;3.15;1.20;;;19.50;61.60;;;;;;5023371;28;20049;-65
2021/08/24 09:01:10;;;;;;;3.70;1.00;;;19.60;59.80;;;;;;5032364;28;20040;-65
2021/08/24 09:04:00;;;;;;;2.17;1.00;;;19.50;59.40;;;;;;5030672;28;20060;-65
2021/08/24 09:06:27;;;;;;;2.90;1.20;;;19.70;61.30;;;;;;5025143;28;20036;-65
2021/08/24 09:08:55;;;;;;;3.70;1.10;;;19.90;55.80;;;;;;5031231;28;20052;-65
2021/08/24 09:11:30;;;;;;;4.93;1.27;;;19.60;60.50;;;;;;5031255;28;20355;-65
2021/08/24 09:14:03;;;;;;;3.58;1.17;;;20.10;60.10;;;;;;5022627;28;20462;-65
2021/08/24 09:16:32;;;;;;;2.55;1.25;;;20.00;61.40;;;;;;5024420;28;20051;-65
2021/08/24 09:19:03;;;;;;;1.77;0.80;;;20.10;54.80;;;;;;5029003;28;20441;-65
2021/08/24 09:21:38;;;;;;;1.73;1.00;;;20.40;58.20;;;;;;5027481;28;20765;-65
2021/08/24 09:24:10;;;;;;;2.25;1.08;;;20.50;58.20;;;;;;5025833;28;20396;-66
2021/08/24 09:26:43;;;;;;;3.13;1.45;;;20.50;51.90;;;;;;5020799;28;20453;-65
2021/08/24 09:29:09;;;;;;;3.38;1.42;;;20.60;56.90;;;;;;5032309;28;20155;-65
2021/08/24 09:31:35;;;;;;;3.35;1.20;;;20.70;52.90;;;;;;5030624;28;20097;-65
2021/08/24 09:34:02;;;;;;;3.03;1.25;;;20.70;52.40;;;;;;5027609;28;20591;-65
2021/08/24 09:36:28;;;;;;;3.95;1.40;;;20.90;53.00;;;;;;5032812;28;20025;-69
2021/08/24 09:38:57;;;;;;;3.88;1.38;;;21.00;52.80;;;;;;5035269;28;20416;-69
2021/08/24 09:41:33;;;;;;;3.10;1.67;;;21.00;53.20;;;;;;5025192;28;20069;-69
2021/08/24 09:44:18;;;;;;;3.72;1.70;;;21.20;54.60;;;;;;5030466;28;20037;-69
2021/08/24 09:46:44;;;;;;;2.63;1.30;;;21.10;49.50;;;;;;5028443;28;20029;-69
2021/08/24 09:49:21;;;;;;;4.40;2.08;;;21.20;49.40;;;;;;5033862;28;20353;-69
2021/08/24 09:52:00;;;;;;;3.85;1.60;;;21.00;49.10;;;;;;5020101;28;20120;-69
2021/08/24 09:54:33;;;;;;;4.55;1.88;;;21.10;48.20;;;;;;5033458;28;20090;-68
2021/08/24 09:57:04;;;;;;;3.35;1.65;;;21.40;53.30;;;;;;5030564;28;21034;-64
2021/08/24 09:59:38;;;;;;;4.47;1.80;;;21.40;47.10;;;;;;5033698;28;20112;-63
2021/08/24 10:02:05;;;;;;;3.78;2.10;;;21.50;50.10;;;;;;5026552;28;20022;-67
2021/08/24 10:04:48;;;;;;;6.43;1.90;;;21.50;48.30;;;;;;5030953;28;20037;-69
2021/08/24 10:07:29;;;;;;;3.55;1.80;;;21.40;50.10;;;;;;5025369;28;20532;-71
2021/08/24 10:09:58;;;;;;;3.78;1.70;;;21.40;50.20;;;;;;5028909;28;20665;-68
2021/08/24 10:12:30;;;;;;;4.85;1.83;;;21.40;50.40;;;;;;5025530;28;20726;-68
2021/08/24 10:14:56;;;;;;;2.90;1.55;;;21.50;51.70;;;;;;5031679;28;20040;-69
2021/08/24 10:17:34;;;;;;;8.25;1.88;;;21.80;51.30;;;;;;5028338;28;20555;-67
2021/08/24 10:20:17;;;;;;;4.15;1.90;;;22.20;50.00;;;;;;5036597;28;20085;-68
2021/08/24 10:22:48;;;;;;;2.97;1.52;;;22.10;50.10;;;;;;5029546;28;20029;-67
2021/08/24 10:25:22;;;;;;;3.58;1.90;;;22.50;50.00;;;;;;5032671;28;20036;-67
2021/08/24 10:28:05;;;;;;;3.63;1.80;;;22.20;48.90;;;;;;5026304;28;20074;-67
2021/08/24 10:31:00;;;;;;;4.15;1.80;;;22.50;50.40;;;;;;5027699;28;20646;-67
2021/08/24 10:33:38;;;;;;;4.97;1.70;;;22.50;48.50;;;;;;5034299;28;20124;-67
2021/08/24 10:36:26;;;;;;;3.92;1.63;;;22.60;48.20;;;;;;5031310;28;20026;-68
2021/08/24 10:39:16;;;;;;;3.72;1.65;;;22.70;46.30;;;;;;5036237;28;20017;-69
2021/08/24 10:41:47;;;;;;;3.92;2.00;;;23.30;46.20;;;;;;5028768;28;20029;-70
2021/08/24 10:44:26;;;;;;;2.40;1.48;;;23.00;47.90;;;;;;5031361;28;20112;-70
2021/08/24 10:47:00;;;;;;;3.83;1.80;;;22.50;48.80;;;;;;5031029;28;20044;-69
2021/08/24 10:49:26;;;;;;;5.13;2.00;;;22.50;50.10;;;;;;5027504;28;20066;-69
2021/08/24 10:52:04;;;;;;;4.55;1.85;;;22.40;49.30;;;;;;5024860;28;20047;-70
2021/08/24 10:54:34;;;;;;;2.97;1.70;;;22.50;45.10;;;;;;5037920;28;20059;-70
2021/08/24 10:57:18;;;;;;;3.03;1.50;;;22.50;47.50;;;;;;5032892;28;20030;-69
2021/08/24 11:00:08;;;;;;;4.75;1.73;;;22.50;48.30;;;;;;5039792;28;20052;-70
2021/08/24 11:03:19;;;;;;;3.45;1.75;;;22.60;50.00;;;;;;5035499;28;20033;-69
2021/08/24 11:06:16;;;;;;;4.47;1.88;;;23.00;49.90;;;;;;5037030;28;20192;-70
2021/08/24 11:09:09;;;;;;;3.92;1.83;;;22.90;47.80;;;;;;5042426;28;20131;-69
2021/08/24 11:11:41;;;;;;;5.03;1.83;;;22.50;44.80;;;;;;5031303;28;20076;-68
2021/08/24 11:14:32;;;;;;;3.28;1.70;;;23.00;47.60;;;;;;5030768;28;20452;-70
2021/08/24 11:17:12;;;;;;;2.22;1.25;;;22.90;45.70;;;;;;5029091;28;20588;-70
2021/08/24 11:20:06;;;;;;;3.90;1.92;;;23.00;45.10;;;;;;5031503;28;20017;-70
2021/08/24 11:22:43;;;;;;;4.32;1.83;;;23.30;44.30;;;;;;5028442;28;20040;-70
2021/08/24 11:25:08;;;;;;;3.88;1.75;;;23.50;47.70;;;;;;5040148;28;20057;-70
2021/08/24 11:27:55;;;;;;;2.90;1.55;;;23.40;44.30;;;;;;5032145;28;20064;-70
2021/08/24 11:30:47;;;;;;;2.42;1.48;;;23.90;46.80;;;;;;5032928;28;20309;-70
2021/08/24 11:33:30;;;;;;;4.72;1.80;;;23.70;45.70;;;;;;5035378;28;20024;-69
2021/08/24 11:36:02;;;;;;;3.72;1.70;;;23.80;47.10;;;;;;5029572;28;20037;-70
2021/08/24 11:38:33;;;;;;;3.58;1.50;;;24.20;44.50;;;;;;5030257;28;20071;-70
2021/08/24 11:41:18;;;;;;;2.95;1.63;;;24.40;44.60;;;;;;5032039;28;20028;-70
2021/08/24 11:44:04;;;;;;;5.00;1.70;;;23.90;44.40;;;;;;5031762;28;20040;-70
2021/08/24 11:46:44;;;;;;;3.75;1.55;;;24.20;44.60;;;;;;5033847;28;20098;-69
2021/08/24 11:49:23;;;;;;;4.27;1.70;;;23.90;43.00;;;;;;5035237;28;20072;-69
2021/08/24 11:52:04;;;;;;;6.33;1.90;;;24.00;41.70;;;;;;5030979;28;20104;-68
2021/08/24 11:54:38;;;;;;;4.90;1.48;;;24.10;45.00;;;;;;5029246;28;20449;-69
2021/08/24 11:57:14;;;;;;;3.63;1.50;;;24.30;45.10;;;;;;5033505;28;20021;-66
2021/08/24 11:59:47;;;;;;;3.53;1.90;;;24.60;41.10;;;;;;5024618;28;20356;-63
2021/08/24 12:02:20;;;;;;;3.40;1.52;;;24.60;40.70;;;;;;5031308;28;20322;-64
2021/08/24 12:04:48;;;;;;;3.50;1.70;;;24.90;42.90;;;;;;5040260;28;20026;-64
2021/08/24 12:07:25;;;;;;;3.78;1.92;;;25.00;41.90;;;;;;5037811;28;20480;-64
2021/08/24 12:09:54;;;;;;;3.58;1.75;;;25.20;42.70;;;;;;5040257;28;20132;-70
2021/08/24 12:12:28;;;;;;;4.22;1.50;;;25.30;41.30;;;;;;5033494;28;20622;-68
2021/08/24 12:14:56;;;;;;;3.92;1.70;;;26.00;41.10;;;;;;5040688;28;20135;-69
2021/08/24 12:17:30;;;;;;;2.75;1.60;;;25.70;41.10;;;;;;5029060;28;20034;-65
2021/08/24 12:20:09;;;;;;;2.97;1.67;;;25.70;40.20;;;;;;5035150;28;20028;-69
2021/08/24 12:22:37;;;;;;;4.43;1.90;;;25.50;40.60;;;;;;5028258;28;20136;-68
2021/08/24 12:25:07;;;;;;;3.78;2.03;;;25.70;42.10;;;;;;5038875;28;20370;-66
2021/08/24 12:27:35;;;;;;;;;;;25.90;42.70;;;;;;5032252;28;20044;-68
2021/08/24 12:30:12;;;;;;;3.22;1.67;;;26.10;42.30;;;;;;5032225;28;21414;-66
2021/08/24 12:32:38;;;;;;;4.45;1.60;;;26.80;42.00;;;;;;5026512;28;20117;-68
2021/08/24 12:35:34;;;;;;;3.42;1.77;;;26.90;37.90;;;;;;5037608;28;20113;-68
2021/08/24 12:38:02;;;;;;;3.67;1.80;;;27.30;39.00;;;;;;5030312;28;20021;-68
2021/08/24 12:40:49;;;;;;;3.65;2.08;;;26.10;38.20;;;;;;5026595;28;20034;-68
2021/08/24 12:43:43;;;;;;;3.58;1.70;;;26.70;39.40;;;;;;5032512;28;20119;-68
2021/08/24 12:46:18;;;;;;;5.07;1.75;;;26.90;41.20;;;;;;5022994;28;20041;-68
2021/08/24 12:49:19;;;;;;;3.53;1.60;;;26.90;38.80;;;;;;5032337;28;20437;-67
2021/08/24 12:51:54;;;;;;;3.20;1.63;;;26.90;38.90;;;;;;5036354;28;20067;-68
2021/08/24 12:54:24;;;;;;;4.25;1.80;;;26.60;37.30;;;;;;5033428;28;20040;-67
2021/08/24 12:57:12;;;;;;;2.85;1.67;;;27.10;39.20;;;;;;5028503;28;20028;-68
2021/08/24 12:59:41;;;;;;;2.50;1.50;;;26.20;39.70;;;;;;5033446;28;20107;-68
2021/08/24 13:02:31;;;;;;;3.63;1.40;;;25.70;41.50;;;;;;5029486;28;20039;-68
2021/08/24 13:05:00;;;;;;;4.28;2.10;;;25.80;42.50;;;;;;5036653;28;20087;-68
2021/08/24 13:07:45;;;;;;;4.05;1.73;;;24.90;44.50;;;;;;5033803;28;20125;-68